Search for airport 
image banner adimage banner adimage banner ad
image banner ad

55PA - Sency

Located in Treskow, United States

ICAO - 55PA, IATA -

Data provided by Airmate  

General information

Coordinates: N40°53'44" W75°56'39"
Elevation is 1350 feet MSL.
Magnetic variation is -12° East
View others Airports in Pennsylvania

Operational data

Special qualification required
Current time UTC:
Current local time:
Weather at : KHZL - Hazleton Rgnl ( 11 km )
METAR: KHZL 182315Z AUTO 25003KT 10SM CLR 23/05 A3031 RMK AO2
View NOTAMs / SUP AIP / TFR affecting this airport [VIEW]
Communications frequencies: [VIEW]

Runways:

RWY identifierQFULength (ft)Width (ft)SurfaceLDA (ft)
081800100GRASS
261800100GRASS

Airport contact information

Address: Treskow United States

Satellite view of 55PA